createdAt,value
2022-09-11T00:01:35.134Z,100.00
2022-09-11T00:04:03.633Z,100.00
2022-09-11T00:06:31.093Z,100.00
2022-09-11T00:09:04.671Z,100.00
2022-09-11T00:11:41.456Z,100.00
2022-09-11T00:14:13.364Z,100.00
2022-09-11T00:16:45.816Z,100.00
2022-09-11T00:19:20.006Z,100.00
2022-09-11T00:21:49.149Z,100.00
2022-09-11T00:24:16.002Z,100.00
2022-09-11T00:26:42.788Z,100.00
2022-09-11T00:29:10.900Z,100.00
2022-09-11T00:31:38.335Z,100.00
2022-09-11T00:34:06.833Z,100.00
2022-09-11T00:36:35.772Z,100.00
2022-09-11T00:39:02.511Z,100.00
2022-09-11T00:41:38.089Z,100.00
2022-09-11T00:44:28.978Z,100.00
2022-09-11T00:47:06.898Z,100.00
2022-09-11T00:49:46.379Z,100.00
2022-09-11T00:52:27.148Z,100.00
2022-09-11T00:55:04.567Z,100.00
2022-09-11T00:57:46.537Z,100.00
2022-09-11T01:00:14.302Z,100.00
2022-09-11T01:02:49.846Z,100.00
2022-09-11T01:05:18.995Z,100.00
2022-09-11T01:07:48.899Z,100.00
2022-09-11T01:10:15.802Z,100.00
2022-09-11T01:13:04.808Z,100.00
2022-09-11T01:15:55.024Z,100.00
2022-09-11T01:18:44.354Z,100.00
2022-09-11T01:22:07.457Z,100.00
2022-09-11T01:25:24.383Z,100.00
2022-09-11T01:28:00.896Z,100.00
2022-09-11T01:31:07.973Z,100.00
2022-09-11T01:34:00.046Z,100.00
2022-09-11T01:36:44.449Z,100.00
2022-09-11T01:39:12.360Z,100.00
2022-09-11T01:41:55.609Z,100.00
2022-09-11T01:44:33.769Z,100.00
2022-09-11T01:47:07.617Z,100.00
2022-09-11T01:49:42.434Z,100.00
2022-09-11T01:52:20.879Z,100.00
2022-09-11T01:55:25.978Z,100.00
2022-09-11T01:58:10.820Z,100.00
2022-09-11T02:00:42.586Z,100.00
2022-09-11T02:03:27.209Z,100.00
2022-09-11T02:06:07.819Z,100.00
2022-09-11T02:08:56.010Z,100.00
2022-09-11T02:11:23.077Z,100.00
2022-09-11T02:14:04.293Z,100.00
2022-09-11T02:16:57.446Z,100.00
2022-09-11T02:19:30.573Z,100.00
2022-09-11T02:21:58.909Z,100.00
2022-09-11T02:24:28.578Z,100.00
2022-09-11T02:27:12.023Z,100.00
2022-09-11T02:29:39.370Z,100.00
2022-09-11T02:32:07.048Z,100.00
2022-09-11T02:34:40.335Z,100.00
2022-09-11T02:37:45.890Z,100.00
2022-09-11T02:41:08.629Z,100.00
2022-09-11T02:44:07.036Z,100.00
2022-09-11T02:47:12.053Z,100.00
2022-09-11T02:50:05.945Z,100.00
2022-09-11T02:52:49.389Z,100.00
2022-09-11T02:55:43.347Z,100.00
2022-09-11T02:58:43.818Z,100.00
2022-09-11T03:01:11.734Z,100.00
2022-09-11T03:03:48.235Z,100.00
2022-09-11T03:06:28.106Z,100.00
2022-09-11T03:08:55.566Z,100.00
2022-09-11T03:11:22.198Z,100.00
2022-09-11T03:13:48.919Z,100.00
2022-09-11T03:16:15.866Z,100.00
2022-09-11T03:18:42.534Z,100.00
2022-09-11T03:21:11.336Z,100.00
2022-09-11T03:23:38.415Z,100.00
2022-09-11T03:26:05.610Z,100.00
2022-09-11T03:28:32.218Z,100.00
2022-09-11T03:30:59.153Z,100.00
2022-09-11T03:33:25.862Z,100.00
2022-09-11T03:35:52.580Z,100.00
2022-09-11T03:38:19.855Z,100.00
2022-09-11T03:40:46.554Z,100.00
2022-09-11T03:43:13.305Z,100.00
2022-09-11T03:45:40.039Z,100.00
2022-09-11T03:48:06.708Z,100.00
2022-09-11T03:50:34.222Z,100.00
2022-09-11T03:53:01.029Z,100.00
2022-09-11T03:55:28.593Z,100.00
2022-09-11T03:57:55.333Z,100.00
2022-09-11T04:00:22.160Z,100.00
2022-09-11T04:02:49.648Z,100.00
2022-09-11T04:05:16.545Z,100.00
2022-09-11T04:07:46.451Z,100.00
2022-09-11T04:10:13.279Z,100.00
2022-09-11T04:12:39.906Z,100.00
2022-09-11T04:15:07.633Z,100.00
2022-09-11T04:17:34.984Z,100.00
2022-09-11T04:20:02.247Z,100.00
2022-09-11T04:22:28.926Z,100.00
2022-09-11T04:24:56.042Z,100.00
2022-09-11T04:27:23.456Z,100.00
2022-09-11T04:29:50.500Z,100.00
2022-09-11T04:32:17.186Z,100.00
2022-09-11T04:34:44.145Z,100.00
2022-09-11T04:37:11.588Z,100.00
2022-09-11T04:39:38.278Z,100.00
2022-09-11T04:42:05.283Z,100.00
2022-09-11T04:44:32.627Z,100.00
2022-09-11T04:46:59.557Z,100.00
2022-09-11T04:49:26.262Z,100.00
2022-09-11T04:51:53.054Z,100.00
2022-09-11T04:54:23.674Z,100.00
2022-09-11T04:56:50.928Z,100.00
2022-09-11T04:59:22.624Z,100.00
2022-09-11T05:01:50.156Z,100.00
2022-09-11T05:04:25.739Z,100.00
2022-09-11T05:06:53.327Z,100.00
2022-09-11T05:09:20.508Z,100.00
2022-09-11T05:11:48.094Z,100.00
2022-09-11T05:14:15.273Z,100.00
2022-09-11T05:16:43.684Z,100.00
2022-09-11T05:19:10.353Z,100.00
2022-09-11T05:21:37.394Z,100.00
2022-09-11T05:24:04.646Z,100.00
2022-09-11T05:26:38.168Z,100.00
2022-09-11T05:29:14.862Z,100.00
2022-09-11T05:31:42.009Z,100.00
2022-09-11T05:34:09.630Z,100.00
2022-09-11T05:36:36.912Z,100.00
2022-09-11T05:39:04.669Z,100.00
2022-09-11T05:41:31.412Z,100.00
2022-09-11T05:43:59.295Z,100.00
2022-09-11T05:46:26.173Z,100.00
2022-09-11T05:48:53.539Z,100.00
2022-09-11T05:51:21.909Z,100.00
2022-09-11T05:53:56.673Z,100.00
2022-09-11T05:56:26.026Z,100.00
2022-09-11T05:58:57.974Z,100.00
2022-09-11T06:01:28.876Z,100.00
2022-09-11T06:03:57.918Z,100.00
2022-09-11T06:06:25.742Z,100.00
2022-09-11T06:08:52.887Z,100.00
2022-09-11T06:11:22.090Z,100.00
2022-09-11T06:13:49.828Z,100.00
2022-09-11T06:16:25.167Z,100.00
2022-09-11T06:18:54.262Z,100.00
2022-09-11T06:21:27.189Z,100.00
2022-09-11T06:23:54.085Z,100.00
2022-09-11T06:26:27.197Z,100.00
2022-09-11T06:28:54.806Z,100.00
2022-09-11T06:31:26.972Z,100.00
2022-09-11T06:33:53.963Z,100.00
2022-09-11T06:36:32.616Z,100.00
2022-09-11T06:38:59.384Z,100.00
2022-09-11T06:41:28.148Z,100.00
2022-09-11T06:43:55.120Z,100.00
2022-09-11T06:46:25.650Z,100.00
2022-09-11T06:48:53.754Z,100.00
2022-09-11T06:51:23.734Z,100.00
2022-09-11T06:53:57.775Z,100.00
2022-09-11T06:56:25.781Z,100.00
2022-09-11T06:58:52.921Z,100.00
2022-09-11T07:01:22.694Z,100.00
2022-09-11T07:03:53.613Z,100.00
2022-09-11T07:06:28.779Z,100.00
2022-09-11T07:09:03.291Z,100.00
2022-09-11T07:11:34.029Z,100.00
2022-09-11T07:14:06.291Z,100.00
2022-09-11T07:16:34.759Z,100.00
2022-09-11T07:19:03.928Z,100.00
2022-09-11T07:21:31.623Z,100.00
2022-09-11T07:24:00.169Z,100.00
2022-09-11T07:26:32.658Z,100.00
2022-09-11T07:29:00.043Z,100.00
2022-09-11T07:31:33.060Z,100.00
2022-09-11T07:34:00.903Z,100.00
2022-09-11T07:36:33.530Z,100.00
2022-09-11T07:39:01.233Z,100.00
2022-09-11T07:41:28.941Z,100.00
2022-09-11T07:44:00.782Z,100.00
2022-09-11T07:46:27.914Z,100.00
2022-09-11T07:48:58.679Z,100.00
2022-09-11T07:51:26.870Z,100.00
2022-09-11T07:53:57.780Z,100.00
2022-09-11T07:56:26.264Z,100.00
2022-09-11T07:58:55.385Z,100.00
2022-09-11T08:01:27.939Z,100.00
2022-09-11T08:04:01.517Z,100.00
2022-09-11T08:06:33.269Z,100.00
2022-09-11T08:09:08.351Z,100.00
2022-09-11T08:11:47.038Z,100.00
2022-09-11T08:14:15.083Z,100.00
2022-09-11T08:16:42.461Z,100.00
2022-09-11T08:19:19.553Z,100.00
2022-09-11T08:21:50.073Z,100.00
2022-09-11T08:24:17.737Z,100.00
2022-09-11T08:26:48.762Z,100.00
2022-09-11T08:29:18.977Z,100.00
2022-09-11T08:31:45.762Z,100.00
2022-09-11T08:34:12.496Z,100.00
2022-09-11T08:36:39.347Z,100.00
2022-09-11T08:39:06.693Z,100.00
2022-09-11T08:41:53.442Z,100.00
2022-09-11T08:44:48.525Z,100.00
2022-09-11T08:47:31.565Z,100.00
2022-09-11T08:50:20.320Z,100.00
2022-09-11T08:52:48.802Z,100.00
2022-09-11T08:55:36.693Z,100.00
2022-09-11T08:58:35.141Z,100.00
2022-09-11T09:01:24.059Z,100.00
2022-09-11T09:04:56.813Z,100.00
2022-09-11T09:08:11.583Z,98.57
2022-09-11T09:10:58.783Z,91.37
2022-09-11T09:14:08.810Z,95.80
2022-09-11T09:17:05.086Z,96.77
2022-09-11T09:19:54.283Z,99.46
2022-09-11T09:22:40.191Z,100.00
2022-09-11T09:25:22.585Z,94.90
2022-09-11T09:28:18.889Z,90.65
2022-09-11T09:30:57.262Z,90.71
2022-09-11T09:33:47.265Z,87.10
2022-09-11T09:36:56.106Z,85.10
2022-09-11T09:39:24.286Z,84.05
2022-09-11T09:42:15.907Z,82.97
2022-09-11T09:45:35.677Z,81.44
2022-09-11T09:48:09.427Z,83.68
2022-09-11T09:50:41.598Z,84.08
2022-09-11T09:53:43.673Z,83.62
2022-09-11T09:56:18.077Z,84.54
2022-09-11T09:59:02.997Z,87.52
2022-09-11T10:01:45.062Z,89.90
2022-09-11T10:04:28.110Z,91.90
2022-09-11T10:07:13.996Z,93.28
2022-09-11T10:10:04.674Z,86.11
2022-09-11T10:12:32.101Z,83.09
2022-09-11T10:15:03.142Z,80.57
2022-09-11T10:17:30.248Z,78.07
2022-09-11T10:20:18.508Z,75.97
2022-09-11T10:22:50.715Z,78.07
2022-09-11T10:25:27.694Z,78.63
2022-09-11T10:28:17.530Z,76.22
2022-09-11T10:31:02.492Z,77.69
2022-09-11T10:33:39.815Z,80.72
2022-09-11T10:36:10.372Z,85.24
2022-09-11T10:38:49.253Z,86.62
2022-09-11T10:41:22.932Z,89.94
2022-09-11T10:44:16.485Z,86.34
2022-09-11T10:46:46.011Z,82.71
2022-09-11T10:49:23.448Z,79.67
2022-09-11T10:52:17.642Z,78.86
2022-09-11T10:55:15.425Z,74.23
2022-09-11T10:57:55.051Z,73.84
2022-09-11T11:00:32.054Z,74.09
2022-09-11T11:03:18.026Z,71.84
2022-09-11T11:06:25.770Z,71.83
2022-09-11T11:09:13.360Z,70.21
2022-09-11T11:12:07.651Z,75.69
2022-09-11T11:15:02.719Z,74.04
2022-09-11T11:18:48.887Z,71.51
2022-09-11T11:21:53.591Z,72.77
2022-09-11T11:24:57.818Z,75.20
2022-09-11T11:27:43.309Z,76.86
2022-09-11T11:30:19.389Z,77.44
2022-09-11T11:33:34.177Z,79.89
2022-09-11T11:36:34.526Z,76.28
2022-09-11T11:39:32.157Z,79.07
2022-09-11T11:42:27.923Z,78.99
2022-09-11T11:45:32.403Z,76.49
2022-09-11T11:48:20.586Z,77.76
2022-09-11T11:51:07.100Z,75.86
2022-09-11T11:53:44.163Z,74.87
2022-09-11T11:56:16.893Z,74.26
2022-09-11T11:58:53.513Z,76.40
2022-09-11T12:01:54.610Z,76.17
2022-09-11T12:04:47.130Z,76.52
2022-09-11T12:07:30.078Z,75.26
2022-09-11T12:10:03.263Z,76.75
2022-09-11T12:12:36.701Z,79.36
2022-09-11T12:15:20.853Z,79.73
2022-09-11T12:18:01.756Z,82.67
2022-09-11T12:20:39.191Z,79.58
2022-09-11T12:23:54.234Z,80.75
2022-09-11T12:26:23.823Z,78.56
2022-09-11T12:29:11.754Z,78.36
2022-09-11T12:31:50.367Z,81.01
2022-09-11T12:34:38.204Z,80.19
2022-09-11T12:37:16.697Z,81.08
2022-09-11T12:40:17.089Z,80.50
2022-09-11T12:42:57.102Z,80.53
2022-09-11T12:45:38.451Z,78.92
2022-09-11T12:48:19.449Z,71.52
2022-09-11T12:50:56.950Z,68.62
2022-09-11T12:53:38.213Z,65.46
2022-09-11T12:56:16.490Z,68.90
2022-09-11T12:58:58.189Z,71.14
2022-09-11T13:01:32.792Z,69.46
2022-09-11T13:04:15.891Z,70.37
2022-09-11T13:06:59.014Z,67.91
2022-09-11T13:09:48.254Z,66.49
2022-09-11T13:12:26.913Z,65.43
2022-09-11T13:15:00.824Z,60.05
2022-09-11T13:17:46.692Z,59.85
2022-09-11T13:20:13.312Z,59.49
2022-09-11T13:22:40.092Z,59.10
2022-09-11T13:25:26.450Z,57.10
2022-09-11T13:28:01.092Z,58.62
2022-09-11T13:30:28.857Z,60.25
2022-09-11T13:33:23.874Z,58.58
2022-09-11T13:35:50.959Z,60.85
2022-09-11T13:38:34.155Z,62.67
2022-09-11T13:41:15.437Z,61.41
2022-09-11T13:43:56.302Z,62.61
2022-09-11T13:46:31.718Z,67.19
2022-09-11T13:49:11.938Z,70.37
2022-09-11T13:51:47.875Z,66.74
2022-09-11T13:54:30.702Z,66.93
2022-09-11T13:56:57.245Z,67.46
2022-09-11T13:59:50.096Z,67.72
2022-09-11T14:02:35.468Z,65.84
2022-09-11T14:05:16.189Z,65.36
2022-09-11T14:08:04.765Z,68.67
2022-09-11T14:10:50.171Z,70.85
2022-09-11T14:13:47.667Z,72.89
2022-09-11T14:16:14.356Z,72.72
2022-09-11T14:19:00.788Z,69.41
2022-09-11T14:21:45.096Z,71.40
2022-09-11T14:24:36.951Z,73.54
2022-09-11T14:27:32.236Z,72.35
2022-09-11T14:29:59.311Z,73.47
2022-09-11T14:32:40.657Z,76.75
2022-09-11T14:35:10.470Z,74.46
2022-09-11T14:37:46.013Z,72.64
2022-09-11T14:40:19.600Z,71.81
2022-09-11T14:42:48.338Z,70.91
2022-09-11T14:45:26.057Z,70.96
2022-09-11T14:47:53.607Z,71.77
2022-09-11T14:50:21.184Z,67.19
2022-09-11T14:52:47.955Z,67.28
2022-09-11T14:55:20.407Z,66.53
2022-09-11T14:57:47.650Z,64.10
2022-09-11T15:00:18.012Z,62.29
2022-09-11T15:02:45.659Z,61.57
2022-09-11T15:05:22.872Z,61.68
2022-09-11T15:07:49.692Z,60.04
2022-09-11T15:10:16.606Z,60.06
2022-09-11T15:12:44.705Z,62.85
2022-09-11T15:15:11.475Z,62.50
2022-09-11T15:17:38.686Z,61.36
2022-09-11T15:20:09.048Z,63.57
2022-09-11T15:22:38.138Z,63.44
2022-09-11T15:25:05.820Z,64.98
2022-09-11T15:27:32.498Z,65.56
2022-09-11T15:30:00.445Z,67.32
2022-09-11T15:32:27.459Z,69.20
2022-09-11T15:34:54.956Z,69.49
2022-09-11T15:37:22.045Z,71.06
2022-09-11T15:39:50.860Z,72.06
2022-09-11T15:42:18.490Z,72.73
2022-09-11T15:44:46.134Z,74.17
2022-09-11T15:47:13.713Z,74.48
2022-09-11T15:49:47.794Z,74.42
2022-09-11T15:52:15.281Z,75.96
2022-09-11T15:54:42.825Z,76.69
2022-09-11T15:57:09.525Z,76.27
2022-09-11T15:59:36.105Z,77.03
2022-09-11T16:02:02.975Z,78.32
2022-09-11T16:04:32.132Z,78.61
2022-09-11T16:06:59.269Z,79.54
2022-09-11T16:09:31.409Z,81.47
2022-09-11T16:12:02.860Z,83.64
2022-09-11T16:14:36.579Z,84.78
2022-09-11T16:17:06.598Z,86.25
2022-09-11T16:19:35.512Z,87.20
2022-09-11T16:22:05.834Z,88.12
2022-09-11T16:24:37.673Z,90.25
2022-09-11T16:27:10.388Z,90.62
2022-09-11T16:30:15.554Z,91.98
2022-09-11T16:32:34.091Z,93.76
2022-09-11T16:35:01.042Z,96.12
2022-09-11T16:37:28.830Z,95.89
2022-09-11T16:39:55.613Z,96.04
2022-09-11T16:42:22.298Z,96.30
2022-09-11T16:44:50.468Z,98.34
2022-09-11T16:47:17.834Z,98.48
2022-09-11T16:52:37.747Z,100.00
2022-09-11T16:55:07.943Z,100.00
2022-09-11T16:57:35.029Z,100.00
2022-09-11T17:00:01.985Z,100.00
2022-09-11T17:02:28.626Z,100.00
2022-09-11T17:04:55.314Z,100.00
2022-09-11T17:07:22.207Z,100.00
2022-09-11T17:09:48.783Z,100.00
2022-09-11T17:12:18.209Z,100.00
2022-09-11T17:14:45.252Z,100.00
2022-09-11T17:17:12.095Z,100.00
2022-09-11T17:19:39.161Z,100.00
2022-09-11T17:22:07.112Z,100.00
2022-09-11T17:24:34.138Z,100.00
2022-09-11T17:27:01.720Z,100.00
2022-09-11T17:29:28.365Z,100.00
2022-09-11T17:32:16.724Z,100.00
2022-09-11T17:34:44.082Z,100.00
2022-09-11T17:37:10.816Z,100.00
2022-09-11T17:39:37.486Z,100.00
2022-09-11T17:42:11.089Z,100.00
2022-09-11T17:44:41.210Z,100.00
2022-09-11T17:47:07.929Z,100.00
2022-09-11T17:49:34.630Z,100.00
2022-09-11T17:52:01.340Z,100.00
2022-09-11T17:54:28.226Z,100.00
2022-09-11T17:56:56.087Z,100.00
2022-09-11T17:59:23.507Z,100.00
2022-09-11T18:01:50.904Z,100.00
2022-09-11T18:04:18.224Z,100.00
2022-09-11T18:06:48.565Z,100.00
2022-09-11T18:09:17.796Z,100.00
2022-09-11T18:11:54.652Z,100.00
2022-09-11T18:14:21.646Z,100.00
2022-09-11T18:16:48.535Z,100.00
2022-09-11T18:19:20.166Z,100.00
2022-09-11T18:21:50.491Z,100.00
2022-09-11T18:24:20.500Z,100.00
2022-09-11T18:26:58.620Z,100.00
2022-09-11T18:29:29.963Z,100.00
2022-09-11T18:31:59.866Z,100.00
2022-09-11T18:34:28.579Z,100.00
2022-09-11T18:36:55.649Z,100.00
2022-09-11T18:39:23.369Z,100.00
2022-09-11T18:41:52.682Z,100.00
2022-09-11T18:44:25.132Z,100.00
2022-09-11T18:46:55.850Z,100.00
2022-09-11T18:49:23.593Z,100.00
2022-09-11T18:51:52.016Z,100.00
2022-09-11T18:54:21.133Z,100.00
2022-09-11T18:56:50.612Z,100.00
2022-09-11T18:59:20.068Z,100.00
2022-09-11T19:01:47.165Z,100.00
2022-09-11T19:04:15.125Z,100.00
2022-09-11T19:06:41.937Z,100.00
2022-09-11T19:09:12.601Z,100.00
2022-09-11T19:11:39.705Z,100.00
2022-09-11T19:14:11.617Z,100.00
2022-09-11T19:16:39.936Z,100.00
2022-09-11T19:19:08.352Z,100.00
2022-09-11T19:21:37.810Z,100.00
2022-09-11T19:24:05.094Z,100.00
2022-09-11T19:26:39.759Z,100.00
2022-09-11T19:29:13.214Z,100.00
2022-09-11T19:31:40.418Z,100.00
2022-09-11T19:34:15.624Z,100.00
2022-09-11T19:36:42.356Z,100.00
2022-09-11T19:39:11.366Z,100.00
2022-09-11T19:41:40.235Z,100.00
2022-09-11T19:44:12.965Z,100.00
2022-09-11T19:46:41.631Z,100.00
2022-09-11T19:49:11.094Z,100.00
2022-09-11T19:51:42.542Z,100.00
2022-09-11T19:54:15.566Z,100.00
2022-09-11T19:56:46.734Z,100.00
2022-09-11T19:59:14.504Z,100.00
2022-09-11T20:01:41.411Z,100.00
2022-09-11T20:04:09.495Z,100.00
2022-09-11T20:06:36.805Z,100.00
2022-09-11T20:11:52.716Z,100.00
2022-09-11T20:14:19.503Z,100.00
2022-09-11T20:16:46.393Z,100.00
2022-09-11T20:19:14.906Z,100.00
2022-09-11T20:21:41.765Z,100.00
2022-09-11T20:24:09.174Z,100.00
2022-09-11T20:26:36.394Z,100.00
2022-09-11T20:29:12.551Z,100.00
2022-09-11T20:31:47.631Z,100.00
2022-09-11T20:34:18.287Z,100.00
2022-09-11T20:36:48.968Z,100.00
2022-09-11T20:39:17.060Z,100.00
2022-09-11T20:41:46.800Z,100.00
2022-09-11T20:44:13.644Z,100.00
2022-09-11T20:46:40.661Z,100.00
2022-09-11T20:49:07.336Z,100.00
2022-09-11T20:51:34.887Z,100.00
2022-09-11T20:54:02.101Z,100.00
2022-09-11T20:56:29.398Z,100.00
2022-09-11T20:58:56.513Z,100.00
2022-09-11T21:01:26.863Z,100.00
2022-09-11T21:03:57.324Z,100.00
2022-09-11T21:06:30.420Z,100.00
2022-09-11T21:09:09.270Z,100.00
2022-09-11T21:11:38.754Z,100.00
2022-09-11T21:14:07.046Z,100.00
2022-09-11T21:16:34.313Z,100.00
2022-09-11T21:19:03.610Z,100.00
2022-09-11T21:21:32.903Z,100.00
2022-09-11T21:24:05.288Z,100.00
2022-09-11T21:26:34.565Z,100.00
2022-09-11T21:29:07.646Z,100.00
2022-09-11T21:31:35.899Z,100.00
2022-09-11T21:34:04.030Z,100.00
2022-09-11T21:36:30.817Z,100.00
2022-09-11T21:38:57.424Z,100.00
2022-09-11T21:41:29.306Z,100.00
2022-09-11T21:43:55.867Z,100.00
2022-09-11T21:46:22.609Z,100.00
2022-09-11T21:48:49.288Z,100.00
2022-09-11T21:51:20.258Z,100.00
2022-09-11T21:53:54.266Z,100.00
2022-09-11T21:56:31.020Z,100.00
2022-09-11T21:58:59.903Z,100.00
2022-09-11T22:01:28.540Z,100.00
2022-09-11T22:03:55.537Z,100.00
2022-09-11T22:06:24.453Z,100.00
2022-09-11T22:08:51.991Z,100.00
2022-09-11T22:11:19.818Z,100.00
2022-09-11T22:13:47.763Z,100.00
2022-09-11T22:16:20.132Z,100.00
2022-09-11T22:18:52.549Z,100.00
2022-09-11T22:21:19.593Z,100.00
2022-09-11T22:23:46.571Z,100.00
2022-09-11T22:26:21.189Z,100.00
2022-09-11T22:28:48.476Z,100.00
2022-09-11T22:31:23.956Z,100.00
2022-09-11T22:33:52.572Z,100.00
2022-09-11T22:36:26.109Z,100.00
2022-09-11T22:38:54.358Z,100.00
2022-09-11T22:41:22.712Z,100.00
2022-09-11T22:43:52.560Z,100.00
2022-09-11T22:46:20.962Z,100.00
2022-09-11T22:48:48.615Z,100.00
2022-09-11T22:51:16.603Z,100.00
2022-09-11T22:53:43.589Z,100.00
2022-09-11T22:56:11.387Z,100.00
2022-09-11T22:58:38.444Z,100.00
2022-09-11T23:01:09.529Z,100.00
2022-09-11T23:03:37.319Z,100.00
2022-09-11T23:06:23.431Z,100.00
2022-09-11T23:08:53.361Z,100.00
2022-09-11T23:11:21.209Z,100.00
2022-09-11T23:13:50.185Z,100.00
2022-09-11T23:16:23.629Z,100.00
2022-09-11T23:19:02.316Z,100.00
2022-09-11T23:21:35.595Z,100.00
2022-09-11T23:24:06.079Z,100.00
2022-09-11T23:26:33.950Z,100.00
2022-09-11T23:29:00.757Z,100.00
2022-09-11T23:31:34.714Z,100.00
2022-09-11T23:34:06.900Z,100.00
2022-09-11T23:36:35.684Z,100.00
2022-09-11T23:39:03.514Z,100.00
2022-09-11T23:41:31.884Z,100.00
2022-09-11T23:43:59.499Z,100.00
2022-09-11T23:46:26.876Z,100.00
2022-09-11T23:48:53.724Z,100.00
2022-09-11T23:51:20.844Z,100.00
2022-09-11T23:53:49.179Z,100.00
2022-09-11T23:56:16.207Z,100.00
2022-09-11T23:58:45.697Z,100.00
